sensor_id;sensor_type;location;lat;lon;timestamp;P1;durP1;ratioP1;P2;durP2;ratioP2
61531;SDS011;47397;48.194;11.632;2023-02-01T00:00:08;3.10;;;1.80;;
61531;SDS011;47397;48.194;11.632;2023-02-01T00:01:10;4.03;;;2.10;;
61531;SDS011;47397;48.194;11.632;2023-02-01T00:02:10;3.00;;;1.83;;
61531;SDS011;47397;48.194;11.632;2023-02-01T00:03:11;3.92;;;2.22;;
61531;SDS011;47397;48.194;11.632;2023-02-01T00:04:11;4.05;;;2.10;;
61531;SDS011;47397;48.194;11.632;2023-02-01T00:05:12;3.67;;;1.98;;
61531;SDS011;47397;48.194;11.632;2023-02-01T00:06:13;4.10;;;2.30;;
61531;SDS011;47397;48.194;11.632;2023-02-01T00:07:14;3.33;;;2.00;;
61531;SDS011;47397;48.194;11.632;2023-02-01T00:08:14;3.55;;;1.88;;
61531;SDS011;47397;48.194;11.632;2023-02-01T00:09:16;3.45;;;2.00;;
61531;SDS011;47397;48.194;11.632;2023-02-01T00:10:16;3.33;;;2.28;;
61531;SDS011;47397;48.194;11.632;2023-02-01T00:11:17;2.95;;;2.03;;
61531;SDS011;47397;48.194;11.632;2023-02-01T00:12:18;4.00;;;2.42;;
61531;SDS011;47397;48.194;11.632;2023-02-01T00:13:18;3.50;;;1.70;;
61531;SDS011;47397;48.194;11.632;2023-02-01T00:14:18;3.88;;;2.05;;
61531;SDS011;47397;48.194;11.632;2023-02-01T00:15:19;4.22;;;1.98;;
61531;SDS011;47397;48.194;11.632;2023-02-01T00:16:20;3.75;;;2.28;;
61531;SDS011;47397;48.194;11.632;2023-02-01T00:17:22;3.17;;;1.95;;
61531;SDS011;47397;48.194;11.632;2023-02-01T00:18:22;2.67;;;1.90;;
61531;SDS011;47397;48.194;11.632;2023-02-01T00:19:22;2.97;;;2.13;;
61531;SDS011;47397;48.194;11.632;2023-02-01T00:20:23;3.88;;;2.25;;
61531;SDS011;47397;48.194;11.632;2023-02-01T00:21:23;2.97;;;2.10;;
61531;SDS011;47397;48.194;11.632;2023-02-01T00:22:24;2.97;;;2.03;;
61531;SDS011;47397;48.194;11.632;2023-02-01T00:23:25;3.63;;;1.83;;
61531;SDS011;47397;48.194;11.632;2023-02-01T00:24:27;3.83;;;2.35;;
61531;SDS011;47397;48.194;11.632;2023-02-01T00:25:27;3.33;;;1.60;;
61531;SDS011;47397;48.194;11.632;2023-02-01T00:26:30;3.63;;;2.00;;
61531;SDS011;47397;48.194;11.632;2023-02-01T00:27:32;3.53;;;2.20;;
61531;SDS011;47397;48.194;11.632;2023-02-01T00:28:32;3.03;;;1.90;;
61531;SDS011;47397;48.194;11.632;2023-02-01T00:29:33;3.03;;;2.00;;
61531;SDS011;47397;48.194;11.632;2023-02-01T00:30:33;4.07;;;2.13;;
61531;SDS011;47397;48.194;11.632;2023-02-01T00:31:34;3.30;;;1.63;;
61531;SDS011;47397;48.194;11.632;2023-02-01T00:32:35;3.42;;;2.03;;
61531;SDS011;47397;48.194;11.632;2023-02-01T00:33:35;2.95;;;2.15;;
61531;SDS011;47397;48.194;11.632;2023-02-01T00:34:35;2.95;;;1.77;;
61531;SDS011;47397;48.194;11.632;2023-02-01T00:35:36;3.00;;;1.95;;
61531;SDS011;47397;48.194;11.632;2023-02-01T00:36:36;3.22;;;2.08;;
61531;SDS011;47397;48.194;11.632;2023-02-01T00:37:37;3.47;;;1.92;;
61531;SDS011;47397;48.194;11.632;2023-02-01T00:38:37;2.72;;;1.80;;
61531;SDS011;47397;48.194;11.632;2023-02-01T00:39:39;3.05;;;2.30;;
61531;SDS011;47397;48.194;11.632;2023-02-01T00:40:40;5.22;;;2.28;;
61531;SDS011;47397;48.194;11.632;2023-02-01T00:41:40;3.45;;;1.90;;
61531;SDS011;47397;48.194;11.632;2023-02-01T00:42:40;3.05;;;1.75;;
61531;SDS011;47397;48.194;11.632;2023-02-01T00:43:41;2.78;;;1.90;;
61531;SDS011;47397;48.194;11.632;2023-02-01T00:44:42;2.75;;;1.80;;
61531;SDS011;47397;48.194;11.632;2023-02-01T00:45:43;3.45;;;2.25;;
61531;SDS011;47397;48.194;11.632;2023-02-01T00:46:44;3.90;;;2.17;;
61531;SDS011;47397;48.194;11.632;2023-02-01T00:47:45;3.45;;;2.33;;
61531;SDS011;47397;48.194;11.632;2023-02-01T00:48:45;2.63;;;1.90;;
61531;SDS011;47397;48.194;11.632;2023-02-01T00:49:46;4.53;;;2.33;;
61531;SDS011;47397;48.194;11.632;2023-02-01T00:50:46;3.42;;;2.03;;
61531;SDS011;47397;48.194;11.632;2023-02-01T00:51:47;3.05;;;1.75;;
61531;SDS011;47397;48.194;11.632;2023-02-01T00:52:47;3.80;;;2.15;;
61531;SDS011;47397;48.194;11.632;2023-02-01T00:53:48;3.65;;;1.98;;
61531;SDS011;47397;48.194;11.632;2023-02-01T00:54:50;3.70;;;2.10;;
61531;SDS011;47397;48.194;11.632;2023-02-01T00:55:50;4.10;;;2.45;;
61531;SDS011;47397;48.194;11.632;2023-02-01T00:56:51;3.58;;;2.50;;
61531;SDS011;47397;48.194;11.632;2023-02-01T00:57:51;4.25;;;2.30;;
61531;SDS011;47397;48.194;11.632;2023-02-01T00:58:51;3.42;;;2.22;;
61531;SDS011;47397;48.194;11.632;2023-02-01T00:59:52;3.38;;;2.10;;
61531;SDS011;47397;48.194;11.632;2023-02-01T01:01:00;3.85;;;2.38;;
61531;SDS011;47397;48.194;11.632;2023-02-01T01:02:01;4.10;;;2.33;;
61531;SDS011;47397;48.194;11.632;2023-02-01T01:03:02;4.35;;;2.60;;
61531;SDS011;47397;48.194;11.632;2023-02-01T01:04:02;3.60;;;2.58;;
61531;SDS011;47397;48.194;11.632;2023-02-01T01:05:03;3.53;;;2.40;;
61531;SDS011;47397;48.194;11.632;2023-02-01T01:06:04;3.58;;;2.65;;
61531;SDS011;47397;48.194;11.632;2023-02-01T01:07:06;6.32;;;2.90;;
61531;SDS011;47397;48.194;11.632;2023-02-01T01:08:06;3.42;;;2.63;;
61531;SDS011;47397;48.194;11.632;2023-02-01T01:09:07;3.17;;;2.08;;
61531;SDS011;47397;48.194;11.632;2023-02-01T01:10:09;4.85;;;2.38;;
61531;SDS011;47397;48.194;11.632;2023-02-01T01:11:11;3.92;;;2.35;;
61531;SDS011;47397;48.194;11.632;2023-02-01T01:12:13;5.47;;;2.45;;
61531;SDS011;47397;48.194;11.632;2023-02-01T01:13:13;4.13;;;2.70;;
61531;SDS011;47397;48.194;11.632;2023-02-01T01:14:14;3.67;;;2.38;;
61531;SDS011;47397;48.194;11.632;2023-02-01T01:15:14;2.78;;;2.22;;
61531;SDS011;47397;48.194;11.632;2023-02-01T01:16:15;3.58;;;2.63;;
61531;SDS011;47397;48.194;11.632;2023-02-01T01:17:16;4.88;;;2.90;;
61531;SDS011;47397;48.194;11.632;2023-02-01T01:18:16;3.80;;;2.63;;
61531;SDS011;47397;48.194;11.632;2023-02-01T01:19:17;3.38;;;2.42;;
61531;SDS011;47397;48.194;11.632;2023-02-01T01:20:17;3.65;;;2.55;;
61531;SDS011;47397;48.194;11.632;2023-02-01T01:21:18;3.47;;;2.60;;
61531;SDS011;47397;48.194;11.632;2023-02-01T01:22:18;3.92;;;2.55;;
61531;SDS011;47397;48.194;11.632;2023-02-01T01:23:19;5.18;;;3.20;;
61531;SDS011;47397;48.194;11.632;2023-02-01T01:24:19;3.88;;;2.53;;
61531;SDS011;47397;48.194;11.632;2023-02-01T01:25:21;3.55;;;2.20;;
61531;SDS011;47397;48.194;11.632;2023-02-01T01:26:22;3.60;;;2.60;;
61531;SDS011;47397;48.194;11.632;2023-02-01T01:27:24;5.25;;;2.67;;
61531;SDS011;47397;48.194;11.632;2023-02-01T01:28:24;4.82;;;2.78;;
61531;SDS011;47397;48.194;11.632;2023-02-01T01:29:24;3.70;;;2.72;;
61531;SDS011;47397;48.194;11.632;2023-02-01T01:30:25;4.43;;;2.80;;
61531;SDS011;47397;48.194;11.632;2023-02-01T01:31:26;5.38;;;2.90;;
61531;SDS011;47397;48.194;11.632;2023-02-01T01:32:27;3.95;;;2.55;;
61531;SDS011;47397;48.194;11.632;2023-02-01T01:33:27;3.55;;;2.58;;
61531;SDS011;47397;48.194;11.632;2023-02-01T01:34:28;3.53;;;2.42;;
61531;SDS011;47397;48.194;11.632;2023-02-01T01:35:28;4.32;;;2.65;;
61531;SDS011;47397;48.194;11.632;2023-02-01T01:36:29;4.97;;;2.95;;
61531;SDS011;47397;48.194;11.632;2023-02-01T01:37:29;3.75;;;2.70;;
61531;SDS011;47397;48.194;11.632;2023-02-01T01:38:31;4.47;;;2.67;;
61531;SDS011;47397;48.194;11.632;2023-02-01T01:39:31;3.95;;;2.65;;
61531;SDS011;47397;48.194;11.632;2023-02-01T01:40:33;3.78;;;2.55;;
61531;SDS011;47397;48.194;11.632;2023-02-01T01:41:34;4.20;;;2.70;;
61531;SDS011;47397;48.194;11.632;2023-02-01T01:42:36;3.83;;;2.90;;
61531;SDS011;47397;48.194;11.632;2023-02-01T01:43:47;3.97;;;2.90;;
61531;SDS011;47397;48.194;11.632;2023-02-01T01:44:56;4.45;;;2.88;;
61531;SDS011;47397;48.194;11.632;2023-02-01T01:46:01;3.83;;;2.80;;
61531;SDS011;47397;48.194;11.632;2023-02-01T01:47:01;5.00;;;2.97;;
61531;SDS011;47397;48.194;11.632;2023-02-01T01:48:04;3.72;;;2.60;;
61531;SDS011;47397;48.194;11.632;2023-02-01T01:49:08;4.20;;;2.78;;
61531;SDS011;47397;48.194;11.632;2023-02-01T01:50:13;3.25;;;2.60;;
61531;SDS011;47397;48.194;11.632;2023-02-01T01:51:17;4.18;;;3.08;;
61531;SDS011;47397;48.194;11.632;2023-02-01T01:52:20;4.18;;;2.92;;
61531;SDS011;47397;48.194;11.632;2023-02-01T01:53:22;4.05;;;2.70;;
61531;SDS011;47397;48.194;11.632;2023-02-01T01:54:27;4.45;;;3.28;;
61531;SDS011;47397;48.194;11.632;2023-02-01T01:55:32;4.30;;;2.92;;
61531;SDS011;47397;48.194;11.632;2023-02-01T01:56:37;3.80;;;2.67;;
61531;SDS011;47397;48.194;11.632;2023-02-01T01:57:39;3.50;;;2.35;;
61531;SDS011;47397;48.194;11.632;2023-02-01T01:58:42;4.72;;;2.95;;
61531;SDS011;47397;48.194;11.632;2023-02-01T01:59:43;5.63;;;3.20;;
61531;SDS011;47397;48.194;11.632;2023-02-01T02:00:48;4.07;;;2.53;;
61531;SDS011;47397;48.194;11.632;2023-02-01T02:01:48;4.22;;;2.60;;
61531;SDS011;47397;48.194;11.632;2023-02-01T02:02:52;5.07;;;3.17;;
61531;SDS011;47397;48.194;11.632;2023-02-01T02:03:56;5.18;;;3.10;;
61531;SDS011;47397;48.194;11.632;2023-02-01T02:04:57;4.30;;;3.22;;
61531;SDS011;47397;48.194;11.632;2023-02-01T02:05:58;5.68;;;3.28;;
61531;SDS011;47397;48.194;11.632;2023-02-01T02:07:00;5.00;;;3.60;;
61531;SDS011;47397;48.194;11.632;2023-02-01T02:08:04;4.85;;;3.20;;
61531;SDS011;47397;48.194;11.632;2023-02-01T02:09:04;4.88;;;3.15;;
61531;SDS011;47397;48.194;11.632;2023-02-01T02:10:06;4.32;;;3.33;;
61531;SDS011;47397;48.194;11.632;2023-02-01T02:11:09;4.25;;;2.92;;
61531;SDS011;47397;48.194;11.632;2023-02-01T02:12:11;4.75;;;3.15;;
61531;SDS011;47397;48.194;11.632;2023-02-01T02:13:12;4.05;;;3.05;;
61531;SDS011;47397;48.194;11.632;2023-02-01T02:14:15;5.05;;;3.10;;
61531;SDS011;47397;48.194;11.632;2023-02-01T02:15:17;5.10;;;3.45;;
61531;SDS011;47397;48.194;11.632;2023-02-01T02:16:27;3.85;;;2.90;;
61531;SDS011;47397;48.194;11.632;2023-02-01T02:17:40;3.72;;;3.05;;
61531;SDS011;47397;48.194;11.632;2023-02-01T02:18:54;6.20;;;3.40;;
61531;SDS011;47397;48.194;11.632;2023-02-01T02:20:15;4.15;;;2.95;;
61531;SDS011;47397;48.194;11.632;2023-02-01T02:21:31;4.53;;;3.38;;
61531;SDS011;47397;48.194;11.632;2023-02-01T02:22:57;4.03;;;3.13;;
61531;SDS011;47397;48.194;11.632;2023-02-01T02:26:07;4.63;;;2.83;;
61531;SDS011;47397;48.194;11.632;2023-02-01T02:27:22;4.65;;;3.05;;
61531;SDS011;47397;48.194;11.632;2023-02-01T02:28:40;4.85;;;3.47;;
61531;SDS011;47397;48.194;11.632;2023-02-01T02:30:18;5.45;;;3.35;;
61531;SDS011;47397;48.194;11.632;2023-02-01T02:31:39;4.30;;;3.33;;
61531;SDS011;47397;48.194;11.632;2023-02-01T02:32:56;5.25;;;3.08;;
61531;SDS011;47397;48.194;11.632;2023-02-01T02:34:24;5.38;;;3.03;;
61531;SDS011;47397;48.194;11.632;2023-02-01T02:35:29;4.25;;;3.45;;
61531;SDS011;47397;48.194;11.632;2023-02-01T02:36:38;6.75;;;3.58;;
61531;SDS011;47397;48.194;11.632;2023-02-01T02:37:50;3.83;;;3.08;;
61531;SDS011;47397;48.194;11.632;2023-02-01T02:38:56;5.22;;;3.30;;
61531;SDS011;47397;48.194;11.632;2023-02-01T02:40:04;4.50;;;3.10;;
61531;SDS011;47397;48.194;11.632;2023-02-01T02:41:13;4.22;;;3.08;;
61531;SDS011;47397;48.194;11.632;2023-02-01T02:42:20;4.47;;;3.10;;
61531;SDS011;47397;48.194;11.632;2023-02-01T02:43:28;6.20;;;3.35;;
61531;SDS011;47397;48.194;11.632;2023-02-01T02:44:36;5.47;;;3.10;;
61531;SDS011;47397;48.194;11.632;2023-02-01T02:45:47;6.40;;;3.53;;
61531;SDS011;47397;48.194;11.632;2023-02-01T02:46:51;4.20;;;3.00;;
61531;SDS011;47397;48.194;11.632;2023-02-01T02:47:57;4.90;;;3.45;;
61531;SDS011;47397;48.194;11.632;2023-02-01T02:49:07;4.35;;;3.28;;
61531;SDS011;47397;48.194;11.632;2023-02-01T02:50:12;4.38;;;3.10;;
61531;SDS011;47397;48.194;11.632;2023-02-01T02:51:19;5.40;;;3.58;;
61531;SDS011;47397;48.194;11.632;2023-02-01T02:52:23;5.15;;;3.58;;
61531;SDS011;47397;48.194;11.632;2023-02-01T02:53:25;5.03;;;3.10;;
61531;SDS011;47397;48.194;11.632;2023-02-01T02:54:31;5.38;;;3.20;;
61531;SDS011;47397;48.194;11.632;2023-02-01T02:55:34;5.10;;;3.40;;
61531;SDS011;47397;48.194;11.632;2023-02-01T02:56:38;3.78;;;2.90;;
61531;SDS011;47397;48.194;11.632;2023-02-01T02:57:40;4.32;;;3.45;;
61531;SDS011;47397;48.194;11.632;2023-02-01T02:58:43;4.60;;;3.20;;
61531;SDS011;47397;48.194;11.632;2023-02-01T02:59:45;8.18;;;3.53;;
61531;SDS011;47397;48.194;11.632;2023-02-01T03:00:48;4.22;;;3.00;;
61531;SDS011;47397;48.194;11.632;2023-02-01T03:01:50;4.35;;;3.20;;
61531;SDS011;47397;48.194;11.632;2023-02-01T03:02:50;4.90;;;3.42;;
61531;SDS011;47397;48.194;11.632;2023-02-01T03:03:52;4.30;;;3.25;;
61531;SDS011;47397;48.194;11.632;2023-02-01T03:04:54;3.90;;;3.05;;
61531;SDS011;47397;48.194;11.632;2023-02-01T03:05:55;4.45;;;3.22;;
61531;SDS011;47397;48.194;11.632;2023-02-01T03:06:56;4.38;;;2.88;;
61531;SDS011;47397;48.194;11.632;2023-02-01T03:07:57;4.03;;;3.10;;
61531;SDS011;47397;48.194;11.632;2023-02-01T03:09:03;5.70;;;3.20;;
61531;SDS011;47397;48.194;11.632;2023-02-01T03:10:10;3.85;;;3.08;;
61531;SDS011;47397;48.194;11.632;2023-02-01T03:11:17;5.80;;;2.90;;
61531;SDS011;47397;48.194;11.632;2023-02-01T03:12:18;4.97;;;2.92;;
61531;SDS011;47397;48.194;11.632;2023-02-01T03:13:22;3.83;;;2.78;;
61531;SDS011;47397;48.194;11.632;2023-02-01T03:14:28;4.32;;;2.65;;
61531;SDS011;47397;48.194;11.632;2023-02-01T03:15:32;4.03;;;2.97;;
61531;SDS011;47397;48.194;11.632;2023-02-01T03:16:39;4.30;;;2.95;;
61531;SDS011;47397;48.194;11.632;2023-02-01T03:17:42;5.43;;;2.95;;
61531;SDS011;47397;48.194;11.632;2023-02-01T03:18:46;4.68;;;2.80;;
61531;SDS011;47397;48.194;11.632;2023-02-01T03:19:50;4.25;;;2.88;;
61531;SDS011;47397;48.194;11.632;2023-02-01T03:20:54;4.43;;;3.22;;
61531;SDS011;47397;48.194;11.632;2023-02-01T03:21:57;4.50;;;2.80;;
61531;SDS011;47397;48.194;11.632;2023-02-01T03:22:59;4.50;;;2.63;;
61531;SDS011;47397;48.194;11.632;2023-02-01T03:24:00;3.50;;;2.70;;
61531;SDS011;47397;48.194;11.632;2023-02-01T03:25:04;3.80;;;2.83;;
61531;SDS011;47397;48.194;11.632;2023-02-01T03:26:09;4.47;;;2.95;;
61531;SDS011;47397;48.194;11.632;2023-02-01T03:27:14;3.28;;;2.28;;
61531;SDS011;47397;48.194;11.632;2023-02-01T03:28:20;4.15;;;2.80;;
61531;SDS011;47397;48.194;11.632;2023-02-01T03:29:26;3.78;;;2.80;;
61531;SDS011;47397;48.194;11.632;2023-02-01T03:30:31;4.05;;;2.92;;
61531;SDS011;47397;48.194;11.632;2023-02-01T03:31:35;3.90;;;2.45;;
61531;SDS011;47397;48.194;11.632;2023-02-01T03:32:36;5.32;;;2.70;;
61531;SDS011;47397;48.194;11.632;2023-02-01T03:33:40;3.58;;;2.63;;
61531;SDS011;47397;48.194;11.632;2023-02-01T03:34:40;4.50;;;2.55;;
61531;SDS011;47397;48.194;11.632;2023-02-01T03:35:45;3.88;;;2.60;;
61531;SDS011;47397;48.194;11.632;2023-02-01T03:36:52;4.30;;;2.80;;
61531;SDS011;47397;48.194;11.632;2023-02-01T03:38:00;3.65;;;2.60;;
61531;SDS011;47397;48.194;11.632;2023-02-01T03:39:04;3.72;;;2.58;;
61531;SDS011;47397;48.194;11.632;2023-02-01T03:40:10;3.83;;;3.05;;
61531;SDS011;47397;48.194;11.632;2023-02-01T03:41:15;3.75;;;2.40;;
61531;SDS011;47397;48.194;11.632;2023-02-01T03:42:20;3.83;;;2.58;;
61531;SDS011;47397;48.194;11.632;2023-02-01T03:43:26;3.90;;;2.80;;
61531;SDS011;47397;48.194;11.632;2023-02-01T03:44:32;3.50;;;2.58;;
61531;SDS011;47397;48.194;11.632;2023-02-01T03:45:35;3.08;;;2.30;;
61531;SDS011;47397;48.194;11.632;2023-02-01T03:46:39;4.00;;;2.72;;
61531;SDS011;47397;48.194;11.632;2023-02-01T03:47:43;3.65;;;2.38;;
61531;SDS011;47397;48.194;11.632;2023-02-01T03:48:47;3.90;;;2.80;;
61531;SDS011;47397;48.194;11.632;2023-02-01T03:49:50;3.83;;;2.67;;
61531;SDS011;47397;48.194;11.632;2023-02-01T03:50:55;4.22;;;2.40;;
61531;SDS011;47397;48.194;11.632;2023-02-01T03:51:59;3.15;;;2.53;;
61531;SDS011;47397;48.194;11.632;2023-02-01T03:53:01;4.32;;;2.53;;
61531;SDS011;47397;48.194;11.632;2023-02-01T03:54:05;4.95;;;2.50;;
61531;SDS011;47397;48.194;11.632;2023-02-01T03:55:09;3.95;;;2.60;;
61531;SDS011;47397;48.194;11.632;2023-02-01T03:56:11;3.58;;;2.35;;
61531;SDS011;47397;48.194;11.632;2023-02-01T03:57:12;3.90;;;2.80;;
61531;SDS011;47397;48.194;11.632;2023-02-01T03:58:15;3.42;;;2.70;;
61531;SDS011;47397;48.194;11.632;2023-02-01T03:59:17;4.72;;;2.45;;
61531;SDS011;47397;48.194;11.632;2023-02-01T04:00:19;5.30;;;2.55;;
61531;SDS011;47397;48.194;11.632;2023-02-01T04:01:21;3.90;;;2.45;;
61531;SDS011;47397;48.194;11.632;2023-02-01T04:02:21;3.97;;;3.00;;
61531;SDS011;47397;48.194;11.632;2023-02-01T04:03:21;3.38;;;2.78;;
61531;SDS011;47397;48.194;11.632;2023-02-01T04:04:22;3.88;;;2.50;;
61531;SDS011;47397;48.194;11.632;2023-02-01T04:05:23;4.10;;;2.40;;
61531;SDS011;47397;48.194;11.632;2023-02-01T04:06:23;4.05;;;2.42;;
61531;SDS011;47397;48.194;11.632;2023-02-01T04:07:25;3.00;;;2.20;;
61531;SDS011;47397;48.194;11.632;2023-02-01T04:08:25;3.80;;;2.60;;
61531;SDS011;47397;48.194;11.632;2023-02-01T04:09:26;5.13;;;2.80;;
61531;SDS011;47397;48.194;11.632;2023-02-01T04:10:26;3.90;;;2.28;;
61531;SDS011;47397;48.194;11.632;2023-02-01T04:11:27;4.03;;;2.65;;
61531;SDS011;47397;48.194;11.632;2023-02-01T04:12:27;4.30;;;2.50;;
61531;SDS011;47397;48.194;11.632;2023-02-01T04:13:27;3.28;;;2.55;;
61531;SDS011;47397;48.194;11.632;2023-02-01T04:14:28;4.68;;;2.35;;
61531;SDS011;47397;48.194;11.632;2023-02-01T04:15:28;3.28;;;2.10;;
61531;SDS011;47397;48.194;11.632;2023-02-01T04:16:29;4.32;;;2.78;;
61531;SDS011;47397;48.194;11.632;2023-02-01T04:17:29;4.93;;;2.65;;
61531;SDS011;47397;48.194;11.632;2023-02-01T04:18:30;3.53;;;2.63;;
61531;SDS011;47397;48.194;11.632;2023-02-01T04:19:30;3.92;;;2.50;;
61531;SDS011;47397;48.194;11.632;2023-02-01T04:20:31;3.63;;;2.60;;
61531;SDS011;47397;48.194;11.632;2023-02-01T04:21:32;3.53;;;2.58;;
61531;SDS011;47397;48.194;11.632;2023-02-01T04:22:33;3.63;;;2.55;;
61531;SDS011;47397;48.194;11.632;2023-02-01T04:23:34;4.38;;;2.70;;
61531;SDS011;47397;48.194;11.632;2023-02-01T04:24:34;3.45;;;2.10;;
61531;SDS011;47397;48.194;11.632;2023-02-01T04:25:35;4.72;;;2.63;;
61531;SDS011;47397;48.194;11.632;2023-02-01T04:26:35;4.57;;;3.20;;
61531;SDS011;47397;48.194;11.632;2023-02-01T04:27:35;4.38;;;2.50;;
61531;SDS011;47397;48.194;11.632;2023-02-01T04:28:36;4.15;;;2.55;;
61531;SDS011;47397;48.194;11.632;2023-02-01T04:29:36;3.67;;;2.50;;
61531;SDS011;47397;48.194;11.632;2023-02-01T04:30:37;3.00;;;2.13;;
61531;SDS011;47397;48.194;11.632;2023-02-01T04:31:37;3.35;;;2.50;;
61531;SDS011;47397;48.194;11.632;2023-02-01T04:32:38;3.10;;;2.30;;
61531;SDS011;47397;48.194;11.632;2023-02-01T04:33:38;3.88;;;2.30;;
61531;SDS011;47397;48.194;11.632;2023-02-01T04:34:39;3.65;;;2.67;;
61531;SDS011;47397;48.194;11.632;2023-02-01T04:35:39;3.60;;;2.80;;
61531;SDS011;47397;48.194;11.632;2023-02-01T04:36:40;3.60;;;2.72;;
61531;SDS011;47397;48.194;11.632;2023-02-01T04:37:42;3.38;;;2.13;;
61531;SDS011;47397;48.194;11.632;2023-02-01T04:38:42;3.80;;;2.67;;
61531;SDS011;47397;48.194;11.632;2023-02-01T04:39:42;3.95;;;2.72;;
61531;SDS011;47397;48.194;11.632;2023-02-01T04:40:43;3.42;;;2.55;;
61531;SDS011;47397;48.194;11.632;2023-02-01T04:41:43;3.17;;;2.30;;
61531;SDS011;47397;48.194;11.632;2023-02-01T04:42:44;3.45;;;2.45;;
61531;SDS011;47397;48.194;11.632;2023-02-01T04:43:44;3.65;;;2.53;;
61531;SDS011;47397;48.194;11.632;2023-02-01T04:44:45;5.53;;;2.80;;
61531;SDS011;47397;48.194;11.632;2023-02-01T04:45:48;3.95;;;2.72;;
61531;SDS011;47397;48.194;11.632;2023-02-01T04:46:49;3.20;;;2.53;;
61531;SDS011;47397;48.194;11.632;2023-02-01T04:47:50;3.97;;;2.80;;
61531;SDS011;47397;48.194;11.632;2023-02-01T04:48:50;4.38;;;2.70;;
61531;SDS011;47397;48.194;11.632;2023-02-01T04:49:51;4.90;;;2.85;;
61531;SDS011;47397;48.194;11.632;2023-02-01T04:50:51;3.38;;;2.47;;
61531;SDS011;47397;48.194;11.632;2023-02-01T04:51:51;4.45;;;2.65;;
61531;SDS011;47397;48.194;11.632;2023-02-01T04:52:53;4.18;;;2.72;;
61531;SDS011;47397;48.194;11.632;2023-02-01T04:53:54;3.60;;;2.70;;
61531;SDS011;47397;48.194;11.632;2023-02-01T04:54:54;3.90;;;2.88;;
61531;SDS011;47397;48.194;11.632;2023-02-01T04:55:55;4.78;;;3.00;;
61531;SDS011;47397;48.194;11.632;2023-02-01T04:56:55;3.88;;;2.25;;
61531;SDS011;47397;48.194;11.632;2023-02-01T04:57:55;4.13;;;2.92;;
61531;SDS011;47397;48.194;11.632;2023-02-01T04:58:56;4.40;;;2.75;;
61531;SDS011;47397;48.194;11.632;2023-02-01T04:59:56;4.82;;;2.95;;
61531;SDS011;47397;48.194;11.632;2023-02-01T05:00:57;5.85;;;3.22;;
61531;SDS011;47397;48.194;11.632;2023-02-01T05:01:57;3.33;;;2.30;;
61531;SDS011;47397;48.194;11.632;2023-02-01T05:02:57;4.28;;;2.92;;
61531;SDS011;47397;48.194;11.632;2023-02-01T05:03:58;4.18;;;2.53;;
61531;SDS011;47397;48.194;11.632;2023-02-01T05:04:58;3.78;;;2.80;;
61531;SDS011;47397;48.194;11.632;2023-02-01T05:05:59;4.22;;;2.53;;
61531;SDS011;47397;48.194;11.632;2023-02-01T05:06:59;3.45;;;2.45;;
61531;SDS011;47397;48.194;11.632;2023-02-01T05:08:01;4.05;;;3.00;;
61531;SDS011;47397;48.194;11.632;2023-02-01T05:09:02;4.10;;;2.88;;
61531;SDS011;47397;48.194;11.632;2023-02-01T05:10:03;4.15;;;2.88;;
61531;SDS011;47397;48.194;11.632;2023-02-01T05:11:03;4.60;;;3.00;;
61531;SDS011;47397;48.194;11.632;2023-02-01T05:12:04;4.72;;;3.10;;
61531;SDS011;47397;48.194;11.632;2023-02-01T05:13:05;4.93;;;2.88;;
61531;SDS011;47397;48.194;11.632;2023-02-01T05:14:05;5.80;;;2.92;;
61531;SDS011;47397;48.194;11.632;2023-02-01T05:15:06;4.95;;;2.88;;
61531;SDS011;47397;48.194;11.632;2023-02-01T05:16:07;4.78;;;3.20;;
61531;SDS011;47397;48.194;11.632;2023-02-01T05:17:07;3.60;;;2.72;;
61531;SDS011;47397;48.194;11.632;2023-02-01T05:18:08;4.47;;;2.90;;
61531;SDS011;47397;48.194;11.632;2023-02-01T05:19:08;3.53;;;2.70;;
61531;SDS011;47397;48.194;11.632;2023-02-01T05:20:09;4.28;;;3.28;;
61531;SDS011;47397;48.194;11.632;2023-02-01T05:21:10;4.20;;;2.95;;
61531;SDS011;47397;48.194;11.632;2023-02-01T05:22:10;3.88;;;2.65;;
61531;SDS011;47397;48.194;11.632;2023-02-01T05:23:12;4.72;;;3.00;;
61531;SDS011;47397;48.194;11.632;2023-02-01T05:24:12;4.50;;;2.70;;
61531;SDS011;47397;48.194;11.632;2023-02-01T05:25:13;5.05;;;2.92;;
61531;SDS011;47397;48.194;11.632;2023-02-01T05:26:13;3.95;;;3.20;;
61531;SDS011;47397;48.194;11.632;2023-02-01T05:27:14;3.55;;;2.40;;
61531;SDS011;47397;48.194;11.632;2023-02-01T05:28:14;4.88;;;3.20;;
61531;SDS011;47397;48.194;11.632;2023-02-01T05:29:15;5.05;;;3.22;;
61531;SDS011;47397;48.194;11.632;2023-02-01T05:30:17;4.30;;;3.10;;
61531;SDS011;47397;48.194;11.632;2023-02-01T05:31:17;4.43;;;3.17;;
61531;SDS011;47397;48.194;11.632;2023-02-01T05:32:18;5.20;;;3.13;;
61531;SDS011;47397;48.194;11.632;2023-02-01T05:33:18;5.13;;;2.80;;
61531;SDS011;47397;48.194;11.632;2023-02-01T05:34:19;4.45;;;3.15;;
61531;SDS011;47397;48.194;11.632;2023-02-01T05:35:19;3.10;;;2.70;;
61531;SDS011;47397;48.194;11.632;2023-02-01T05:36:20;4.30;;;3.30;;
61531;SDS011;47397;48.194;11.632;2023-02-01T05:37:20;4.30;;;2.92;;
61531;SDS011;47397;48.194;11.632;2023-02-01T05:38:22;5.25;;;3.13;;
61531;SDS011;47397;48.194;11.632;2023-02-01T05:39:22;4.28;;;3.03;;
61531;SDS011;47397;48.194;11.632;2023-02-01T05:40:23;5.47;;;3.00;;
61531;SDS011;47397;48.194;11.632;2023-02-01T05:41:23;4.35;;;3.22;;
61531;SDS011;47397;48.194;11.632;2023-02-01T05:42:24;4.90;;;3.40;;
61531;SDS011;47397;48.194;11.632;2023-02-01T05:43:24;5.03;;;3.00;;
61531;SDS011;47397;48.194;11.632;2023-02-01T05:44:25;4.07;;;2.55;;
61531;SDS011;47397;48.194;11.632;2023-02-01T05:45:25;4.13;;;2.75;;
61531;SDS011;47397;48.194;11.632;2023-02-01T05:46:25;4.60;;;3.42;;
61531;SDS011;47397;48.194;11.632;2023-02-01T05:47:26;6.03;;;3.40;;
61531;SDS011;47397;48.194;11.632;2023-02-01T05:48:26;4.53;;;3.22;;
61531;SDS011;47397;48.194;11.632;2023-02-01T05:49:27;4.93;;;3.13;;
61531;SDS011;47397;48.194;11.632;2023-02-01T05:50:27;4.53;;;2.90;;
61531;SDS011;47397;48.194;11.632;2023-02-01T05:51:27;5.30;;;3.55;;
61531;SDS011;47397;48.194;11.632;2023-02-01T05:52:28;3.85;;;3.00;;
61531;SDS011;47397;48.194;11.632;2023-02-01T05:53:30;4.38;;;2.90;;
61531;SDS011;47397;48.194;11.632;2023-02-01T05:54:30;4.05;;;3.00;;
61531;SDS011;47397;48.194;11.632;2023-02-01T05:55:31;4.03;;;3.10;;
61531;SDS011;47397;48.194;11.632;2023-02-01T05:56:31;5.38;;;3.15;;
61531;SDS011;47397;48.194;11.632;2023-02-01T05:57:32;3.90;;;2.80;;
61531;SDS011;47397;48.194;11.632;2023-02-01T05:58:32;3.83;;;3.00;;
61531;SDS011;47397;48.194;11.632;2023-02-01T05:59:33;4.32;;;3.00;;
61531;SDS011;47397;48.194;11.632;2023-02-01T06:00:33;4.25;;;3.20;;
61531;SDS011;47397;48.194;11.632;2023-02-01T06:01:34;4.35;;;3.10;;
61531;SDS011;47397;48.194;11.632;2023-02-01T06:02:34;4.78;;;2.72;;
61531;SDS011;47397;48.194;11.632;2023-02-01T06:03:34;4.43;;;3.03;;
61531;SDS011;47397;48.194;11.632;2023-02-01T06:04:35;4.95;;;3.15;;
61531;SDS011;47397;48.194;11.632;2023-02-01T06:05:36;5.80;;;3.15;;
61531;SDS011;47397;48.194;11.632;2023-02-01T06:06:36;4.72;;;2.80;;
61531;SDS011;47397;48.194;11.632;2023-02-01T06:07:36;5.60;;;2.88;;
61531;SDS011;47397;48.194;11.632;2023-02-01T06:08:38;4.78;;;3.40;;
61531;SDS011;47397;48.194;11.632;2023-02-01T06:09:38;4.50;;;3.28;;
61531;SDS011;47397;48.194;11.632;2023-02-01T06:10:39;4.50;;;2.83;;
61531;SDS011;47397;48.194;11.632;2023-02-01T06:11:39;4.40;;;3.13;;